createdAt,value
2023-02-14T00:00:28.242Z,59.80
2023-02-14T00:02:57.794Z,53.83
2023-02-14T00:05:27.055Z,65.47
2023-02-14T00:07:57.661Z,59.10
2023-02-14T00:10:26.919Z,58.93
2023-02-14T00:12:56.118Z,67.17
2023-02-14T00:15:25.190Z,59.93
2023-02-14T00:17:55.643Z,59.33
2023-02-14T00:20:25.366Z,59.17
2023-02-14T00:22:55.266Z,59.27
2023-02-14T00:25:25.922Z,57.73
2023-02-14T00:27:56.100Z,55.43
2023-02-14T00:30:25.925Z,53.30
2023-02-14T00:32:55.352Z,49.37
2023-02-14T00:35:24.570Z,51.20
2023-02-14T00:37:53.790Z,51.40
2023-02-14T00:40:23.150Z,53.27
2023-02-14T00:42:53.735Z,49.00
2023-02-14T00:45:25.139Z,49.10
2023-02-14T00:47:54.836Z,39.87
2023-02-14T00:50:24.009Z,41.80
2023-02-14T00:52:53.943Z,41.00
2023-02-14T00:55:23.090Z,43.63
2023-02-14T00:57:53.731Z,44.70
2023-02-14T01:00:23.894Z,37.20
2023-02-14T01:02:53.402Z,37.90
2023-02-14T01:05:22.635Z,36.23
2023-02-14T01:07:52.002Z,40.43
2023-02-14T01:10:21.213Z,40.70
2023-02-14T01:12:50.575Z,36.03
2023-02-14T01:15:21.415Z,36.87
2023-02-14T01:17:50.874Z,30.33
2023-02-14T01:20:20.139Z,32.93
2023-02-14T01:22:49.347Z,29.33
2023-02-14T01:25:18.931Z,27.57
2023-02-14T01:27:48.313Z,31.07
2023-02-14T01:30:18.470Z,32.43
2023-02-14T01:32:49.756Z,31.30
2023-02-14T01:35:19.164Z,31.43
2023-02-14T01:37:48.419Z,27.57
2023-02-14T01:40:17.658Z,24.57
2023-02-14T01:42:46.911Z,22.43
2023-02-14T01:45:19.227Z,25.63
2023-02-14T01:47:52.874Z,22.97
2023-02-14T01:50:23.871Z,27.93
2023-02-14T01:52:54.940Z,25.60
2023-02-14T01:55:26.103Z,24.37
2023-02-14T01:57:58.050Z,29.77
2023-02-14T02:00:44.981Z,29.23
2023-02-14T02:03:16.222Z,30.70
2023-02-14T02:05:50.248Z,31.60
2023-02-14T02:08:19.551Z,33.43
2023-02-14T02:10:48.741Z,34.60
2023-02-14T02:13:18.562Z,31.40
2023-02-14T02:15:52.246Z,36.73
2023-02-14T02:18:28.436Z,33.67
2023-02-14T02:21:16.543Z,39.53
2023-02-14T02:23:56.613Z,36.20
2023-02-14T02:26:40.273Z,40.00
2023-02-14T02:29:33.523Z,33.40
2023-02-14T02:32:20.484Z,39.70
2023-02-14T02:35:08.136Z,32.87
2023-02-14T02:37:43.866Z,32.57
2023-02-14T02:40:30.192Z,35.10
2023-02-14T02:43:03.392Z,32.40
2023-02-14T02:45:59.866Z,29.73
2023-02-14T02:48:33.932Z,31.27
2023-02-14T02:51:24.196Z,29.37
2023-02-14T02:53:56.976Z,29.80
2023-02-14T02:56:47.804Z,30.30
2023-02-14T02:59:20.783Z,30.33
2023-02-14T03:01:58.062Z,31.90
2023-02-14T03:04:46.457Z,30.10
2023-02-14T03:07:33.621Z,30.10
2023-02-14T03:10:07.839Z,30.60
2023-02-14T03:12:54.751Z,28.53
2023-02-14T03:15:29.841Z,30.10
2023-02-14T03:18:04.550Z,26.87
2023-02-14T03:20:38.076Z,27.27
2023-02-14T03:23:10.398Z,25.63
2023-02-14T03:25:45.312Z,28.00
2023-02-14T03:28:19.466Z,30.43
2023-02-14T03:30:56.387Z,29.07
2023-02-14T03:33:31.726Z,33.30
2023-02-14T03:36:03.945Z,28.97
2023-02-14T03:38:36.331Z,26.67
2023-02-14T03:41:09.338Z,27.80
2023-02-14T03:43:39.952Z,23.70
2023-02-14T03:46:11.358Z,26.83
2023-02-14T03:48:42.128Z,24.93
2023-02-14T03:51:13.304Z,27.47
2023-02-14T03:53:46.006Z,23.90
2023-02-14T03:56:18.373Z,26.77
2023-02-14T03:58:49.345Z,23.77
2023-02-14T04:01:45.031Z,26.93
2023-02-14T04:04:16.811Z,25.93
2023-02-14T04:06:46.268Z,26.50
2023-02-14T04:09:15.515Z,30.53
2023-02-14T04:11:46.605Z,28.73
2023-02-14T04:14:16.040Z,24.60
2023-02-14T04:17:02.708Z,24.83
2023-02-14T04:19:32.079Z,25.00
2023-02-14T04:22:01.278Z,25.03
2023-02-14T04:24:30.517Z,23.30
2023-02-14T04:27:11.462Z,24.03
2023-02-14T04:29:41.492Z,28.93
2023-02-14T04:32:11.781Z,22.47
2023-02-14T04:34:41.327Z,27.30
2023-02-14T04:37:10.699Z,22.63
2023-02-14T04:39:40.337Z,26.57
2023-02-14T04:42:11.007Z,25.30
2023-02-14T04:44:40.166Z,24.63
2023-02-14T04:47:09.422Z,21.13
2023-02-14T04:49:38.748Z,23.73
2023-02-14T04:52:08.429Z,24.13
2023-02-14T04:54:37.652Z,23.90
2023-02-14T04:57:07.127Z,22.47
2023-02-14T04:59:37.810Z,22.23
2023-02-14T05:02:07.148Z,28.40
2023-02-14T05:04:36.519Z,35.90
2023-02-14T05:07:06.723Z,23.13
2023-02-14T05:09:36.057Z,22.30
2023-02-14T05:12:05.470Z,25.93
2023-02-14T05:14:34.892Z,23.43
2023-02-14T05:17:05.516Z,22.70
2023-02-14T05:19:34.928Z,20.70
2023-02-14T05:22:04.102Z,24.03
2023-02-14T05:24:33.460Z,24.00
2023-02-14T05:27:02.726Z,20.00
2023-02-14T05:29:32.170Z,23.20
2023-02-14T05:32:01.649Z,24.03
2023-02-14T05:34:32.639Z,26.03
2023-02-14T05:37:02.670Z,21.13
2023-02-14T05:39:31.862Z,25.37
2023-02-14T05:42:01.226Z,49.50
2023-02-14T05:44:30.379Z,22.50
2023-02-14T05:46:59.649Z,21.60
2023-02-14T05:49:29.097Z,26.17
2023-02-14T05:51:59.801Z,26.83
2023-02-14T05:54:29.091Z,22.20
2023-02-14T05:56:58.399Z,19.40
2023-02-14T05:59:27.603Z,20.40
2023-02-14T06:01:56.819Z,19.93
2023-02-14T06:04:26.134Z,27.93
2023-02-14T06:06:55.560Z,24.10
2023-02-14T06:09:26.190Z,35.77
2023-02-14T06:11:55.578Z,19.33
2023-02-14T06:14:24.992Z,20.67
2023-02-14T06:16:54.306Z,25.50
2023-02-14T06:19:23.670Z,21.73
2023-02-14T06:21:52.967Z,20.33
2023-02-14T06:24:22.174Z,21.73
2023-02-14T06:26:52.775Z,27.03
2023-02-14T06:29:21.945Z,26.10
2023-02-14T06:31:51.332Z,28.93
2023-02-14T06:34:21.020Z,28.70
2023-02-14T06:36:50.226Z,25.30
2023-02-14T06:39:19.428Z,28.13
2023-02-14T06:41:48.790Z,27.20
2023-02-14T06:44:19.419Z,26.80
2023-02-14T06:46:48.586Z,25.27
2023-02-14T06:49:17.828Z,23.50
2023-02-14T06:51:47.138Z,26.50
2023-02-14T06:54:16.320Z,25.50
2023-02-14T06:56:45.648Z,25.60
2023-02-14T06:59:14.837Z,26.23
2023-02-14T07:01:45.458Z,22.30
2023-02-14T07:04:14.822Z,27.00
2023-02-14T07:06:44.341Z,28.27
2023-02-14T07:09:16.956Z,29.90
2023-02-14T07:11:46.361Z,30.13
2023-02-14T07:14:15.712Z,25.17
2023-02-14T07:16:46.549Z,27.33
2023-02-14T07:19:15.988Z,29.27
2023-02-14T07:21:45.215Z,27.33
2023-02-14T07:24:14.473Z,31.30
2023-02-14T07:26:44.101Z,24.80
2023-02-14T07:29:13.349Z,25.70
2023-02-14T07:31:42.823Z,25.50
2023-02-14T07:34:13.671Z,26.00
2023-02-14T07:36:44.298Z,25.40
2023-02-14T07:39:13.661Z,34.93
2023-02-14T07:41:42.843Z,72.80
2023-02-14T07:44:13.024Z,24.50
2023-02-14T07:46:42.239Z,31.20
2023-02-14T07:49:11.556Z,32.80
2023-02-14T07:51:42.784Z,30.83
2023-02-14T07:54:12.232Z,38.20
2023-02-14T07:56:41.421Z,33.40
2023-02-14T07:59:10.928Z,42.43
2023-02-14T08:01:40.350Z,26.30
2023-02-14T08:04:09.646Z,27.70
2023-02-14T08:06:38.903Z,35.23
2023-02-14T08:09:10.548Z,32.90
2023-02-14T08:11:57.744Z,29.17
2023-02-14T08:14:26.995Z,25.47
2023-02-14T08:16:56.149Z,30.57
2023-02-14T08:19:25.481Z,22.00
2023-02-14T08:21:54.725Z,30.40
2023-02-14T08:24:25.701Z,24.17
2023-02-14T08:26:55.183Z,25.83
2023-02-14T08:29:24.460Z,21.87
2023-02-14T08:31:54.486Z,20.70
2023-02-14T08:34:23.866Z,21.63
2023-02-14T08:36:53.315Z,19.37
2023-02-14T08:39:22.523Z,25.00
2023-02-14T08:41:53.347Z,23.00
2023-02-14T08:44:22.531Z,21.17
2023-02-14T08:46:51.654Z,31.20
2023-02-14T08:49:21.075Z,22.60
2023-02-14T08:51:50.448Z,32.00
2023-02-14T08:54:19.735Z,25.00
2023-02-14T08:56:48.917Z,21.80
2023-02-14T08:59:19.658Z,19.70
2023-02-14T09:01:48.926Z,19.97
2023-02-14T09:04:18.898Z,22.20
2023-02-14T09:06:48.158Z,25.37
2023-02-14T09:09:19.579Z,20.90
2023-02-14T09:11:49.101Z,21.90
2023-02-14T09:14:21.206Z,21.97
2023-02-14T09:16:50.577Z,18.00
2023-02-14T09:19:20.032Z,18.93
2023-02-14T09:21:49.387Z,14.90
2023-02-14T09:24:18.682Z,16.77
2023-02-14T09:26:48.405Z,25.53
2023-02-14T09:29:19.205Z,16.30
2023-02-14T09:31:48.634Z,22.07
2023-02-14T09:34:36.029Z,19.37
2023-02-14T09:37:23.339Z,21.93
2023-02-14T09:39:52.653Z,18.17
2023-02-14T09:42:30.481Z,13.93
2023-02-14T09:45:03.432Z,15.17
2023-02-14T09:47:36.203Z,21.23
2023-02-14T09:50:06.312Z,16.67
2023-02-14T09:52:36.560Z,19.47
2023-02-14T09:55:06.050Z,15.73
2023-02-14T09:57:41.416Z,22.33
2023-02-14T10:00:25.086Z,13.77
2023-02-14T10:03:01.302Z,15.53
2023-02-14T10:05:31.679Z,19.47
2023-02-14T10:08:03.240Z,16.90
2023-02-14T10:10:37.132Z,31.80
2023-02-14T10:13:09.555Z,12.23
2023-02-14T10:15:41.440Z,17.40
2023-02-14T10:18:13.617Z,14.60
2023-02-14T10:20:44.421Z,18.50
2023-02-14T10:23:22.376Z,17.47
2023-02-14T10:25:56.518Z,18.60
2023-02-14T10:28:28.870Z,13.87
2023-02-14T10:31:03.302Z,26.53
2023-02-14T10:33:35.398Z,22.87
2023-02-14T10:36:06.870Z,15.63
2023-02-14T10:38:43.238Z,22.23
2023-02-14T10:41:19.103Z,21.30
2023-02-14T10:43:52.506Z,19.73
2023-02-14T10:46:27.818Z,23.90
2023-02-14T10:49:00.322Z,23.87
2023-02-14T10:51:34.034Z,31.93
2023-02-14T10:54:11.311Z,16.47
2023-02-14T10:56:42.633Z,17.93
2023-02-14T10:59:17.572Z,20.80
2023-02-14T11:01:49.234Z,16.50
2023-02-14T11:04:19.445Z,21.03
2023-02-14T11:06:50.473Z,17.13
2023-02-14T11:09:19.904Z,19.40
2023-02-14T11:11:50.866Z,16.07
2023-02-14T11:14:25.204Z,18.63
2023-02-14T11:16:56.673Z,21.97
2023-02-14T11:19:27.625Z,19.70
2023-02-14T11:21:57.914Z,16.13
2023-02-14T11:24:32.175Z,20.93
2023-02-14T11:27:02.995Z,26.40
2023-02-14T11:29:33.431Z,23.23
2023-02-14T11:32:10.592Z,32.07
2023-02-14T11:34:41.385Z,17.53
2023-02-14T11:37:20.355Z,21.63
2023-02-14T11:39:50.449Z,40.87
2023-02-14T11:42:34.360Z,25.20
2023-02-14T11:45:05.389Z,20.60
2023-02-14T11:47:41.704Z,20.50
2023-02-14T11:50:23.557Z,21.80
2023-02-14T11:52:54.052Z,19.90
2023-02-14T11:55:26.959Z,26.63
2023-02-14T11:57:56.602Z,21.53
2023-02-14T12:00:27.118Z,24.47
2023-02-14T12:02:58.140Z,23.60
2023-02-14T12:05:30.425Z,22.00
2023-02-14T12:08:00.719Z,21.63
2023-02-14T12:10:30.897Z,23.67
2023-02-14T12:13:02.097Z,17.47
2023-02-14T12:15:34.828Z,16.77
2023-02-14T12:18:22.021Z,33.53
2023-02-14T12:20:55.437Z,23.60
2023-02-14T12:23:27.695Z,14.90
2023-02-14T12:25:59.880Z,20.97
2023-02-14T12:28:32.156Z,15.60
2023-02-14T12:31:01.633Z,19.10
2023-02-14T12:33:31.420Z,15.10
2023-02-14T12:36:05.845Z,15.10
2023-02-14T12:38:43.652Z,15.20
2023-02-14T12:41:24.415Z,20.03
2023-02-14T12:43:55.488Z,22.40
2023-02-14T12:46:42.777Z,20.57
2023-02-14T12:49:32.563Z,11.50
2023-02-14T12:52:09.430Z,15.07
2023-02-14T12:54:45.367Z,11.37
2023-02-14T12:57:20.958Z,16.30
2023-02-14T12:59:56.115Z,16.40
2023-02-14T13:02:40.090Z,14.23
2023-02-14T13:05:16.675Z,9.43
2023-02-14T13:07:55.930Z,26.33
2023-02-14T13:10:32.712Z,11.77
2023-02-14T13:13:06.086Z,11.70
2023-02-14T13:15:38.987Z,8.20
2023-02-14T13:18:13.536Z,10.60
2023-02-14T13:20:45.458Z,11.80
2023-02-14T13:23:19.388Z,10.00
2023-02-14T13:25:50.704Z,9.37
2023-02-14T13:28:21.114Z,13.73
2023-02-14T13:30:50.528Z,10.20
2023-02-14T13:33:28.356Z,12.40
2023-02-14T13:35:59.104Z,9.10
2023-02-14T13:38:31.951Z,13.53
2023-02-14T13:41:02.209Z,10.90
2023-02-14T13:43:48.122Z,9.90
2023-02-14T13:46:18.693Z,9.10
2023-02-14T13:48:58.334Z,12.70
2023-02-14T13:51:42.467Z,10.07
2023-02-14T13:54:22.522Z,11.57
2023-02-14T13:56:51.924Z,8.73
2023-02-14T13:59:29.089Z,11.97
2023-02-14T14:01:58.727Z,9.10
2023-02-14T14:04:38.030Z,9.60
2023-02-14T14:07:25.831Z,10.43
2023-02-14T14:09:58.830Z,7.57
2023-02-14T14:12:44.156Z,8.60
2023-02-14T14:15:18.718Z,11.47
2023-02-14T14:17:50.519Z,10.70
2023-02-14T14:20:34.144Z,12.20
2023-02-14T14:23:03.514Z,12.47
2023-02-14T14:25:34.968Z,11.30
2023-02-14T14:28:04.420Z,10.67
2023-02-14T14:30:34.515Z,14.20
2023-02-14T14:33:15.227Z,12.00
2023-02-14T14:35:54.370Z,8.30
2023-02-14T14:38:23.841Z,10.77
2023-02-14T14:40:55.115Z,7.93
2023-02-14T14:43:28.045Z,12.70
2023-02-14T14:45:59.135Z,8.13
2023-02-14T14:48:32.705Z,10.87
2023-02-14T14:51:02.458Z,8.20
2023-02-14T14:53:35.509Z,7.93
2023-02-14T14:56:06.789Z,13.07
2023-02-14T14:58:39.635Z,11.43
2023-02-14T15:01:10.566Z,9.13
2023-02-14T15:03:39.790Z,23.40
2023-02-14T15:06:17.799Z,9.47
2023-02-14T15:08:48.411Z,10.43
2023-02-14T15:11:35.629Z,10.80
2023-02-14T15:14:05.918Z,12.07
2023-02-14T15:16:37.998Z,8.43
2023-02-14T15:19:10.914Z,8.80
2023-02-14T15:21:44.626Z,8.30
2023-02-14T15:24:15.917Z,8.13
2023-02-14T15:26:48.570Z,9.23
2023-02-14T15:29:23.188Z,12.60
2023-02-14T15:31:52.863Z,6.90
2023-02-14T15:34:23.832Z,12.30
2023-02-14T15:36:57.642Z,13.13
2023-02-14T15:39:31.907Z,21.47
2023-02-14T15:42:03.187Z,9.13
2023-02-14T15:44:32.998Z,8.10
2023-02-14T15:47:03.784Z,8.47
2023-02-14T15:49:35.254Z,9.03
2023-02-14T15:52:05.828Z,7.97
2023-02-14T15:54:38.011Z,24.00
2023-02-14T15:57:10.091Z,6.23
2023-02-14T15:59:43.688Z,11.20
2023-02-14T16:02:21.467Z,10.80
2023-02-14T16:04:51.742Z,17.40
2023-02-14T16:07:24.442Z,14.70
2023-02-14T16:10:13.994Z,18.37
2023-02-14T16:12:44.923Z,9.60
2023-02-14T16:15:20.321Z,12.03
2023-02-14T16:17:50.683Z,6.60
2023-02-14T16:20:29.105Z,9.23
2023-02-14T16:23:17.174Z,10.53
2023-02-14T16:25:49.528Z,11.23
2023-02-14T16:28:21.390Z,9.00
2023-02-14T16:30:55.431Z,8.27
2023-02-14T16:33:26.593Z,10.47
2023-02-14T16:35:56.235Z,7.17
2023-02-14T16:38:25.566Z,8.03
2023-02-14T16:40:56.284Z,9.67
2023-02-14T16:43:27.310Z,10.60
2023-02-14T16:45:57.223Z,7.30
2023-02-14T16:48:27.282Z,8.57
2023-02-14T16:50:57.687Z,9.00
2023-02-14T16:53:28.523Z,21.53
2023-02-14T16:56:00.112Z,11.13
2023-02-14T16:58:34.225Z,10.57
2023-02-14T17:01:04.240Z,6.77
2023-02-14T17:03:34.034Z,7.53
2023-02-14T17:06:06.495Z,8.33
2023-02-14T17:08:36.523Z,13.00
2023-02-14T17:11:07.579Z,8.80
2023-02-14T17:13:41.134Z,10.47
2023-02-14T17:16:13.111Z,8.80
2023-02-14T17:18:43.692Z,7.80
2023-02-14T17:21:13.031Z,7.47
2023-02-14T17:23:42.394Z,11.10
2023-02-14T17:26:12.166Z,13.60
2023-02-14T17:28:42.908Z,11.20
2023-02-14T17:31:13.401Z,9.60
2023-02-14T17:33:43.441Z,32.83
2023-02-14T17:36:13.763Z,11.07
2023-02-14T17:38:45.340Z,13.97
2023-02-14T17:41:15.846Z,16.37
2023-02-14T17:43:47.176Z,10.40
2023-02-14T17:46:18.862Z,11.63
2023-02-14T17:48:49.111Z,12.50
2023-02-14T17:51:20.685Z,9.57
2023-02-14T17:53:50.419Z,11.97
2023-02-14T17:56:20.702Z,9.50
2023-02-14T17:58:52.163Z,14.60
2023-02-14T18:01:22.518Z,12.37
2023-02-14T18:03:52.164Z,13.70
2023-02-14T18:06:22.134Z,14.70
2023-02-14T18:08:53.186Z,10.93
2023-02-14T18:11:23.146Z,22.47
2023-02-14T18:13:55.319Z,12.30
2023-02-14T18:16:25.007Z,14.10
2023-02-14T18:18:55.108Z,17.00
2023-02-14T18:21:24.776Z,11.87
2023-02-14T18:23:54.081Z,12.00
2023-02-14T18:26:24.105Z,16.83
2023-02-14T18:28:54.890Z,14.77
2023-02-14T18:31:24.498Z,14.33
2023-02-14T18:33:53.816Z,15.20
2023-02-14T18:36:24.513Z,22.40
2023-02-14T18:38:55.119Z,18.97
2023-02-14T18:41:24.703Z,20.30
2023-02-14T18:43:55.445Z,16.67
2023-02-14T18:46:26.275Z,18.73
2023-02-14T18:48:56.029Z,19.27
2023-02-14T18:51:27.395Z,21.00
2023-02-14T18:53:57.788Z,15.90
2023-02-14T18:56:29.015Z,12.20
2023-02-14T18:59:01.523Z,12.53
2023-02-14T19:01:32.452Z,14.03
2023-02-14T19:04:03.219Z,17.50
2023-02-14T19:06:34.293Z,20.07
2023-02-14T19:09:04.620Z,17.97
2023-02-14T19:11:34.228Z,15.97
2023-02-14T19:14:10.294Z,24.03
2023-02-14T19:16:42.300Z,18.00
2023-02-14T19:19:11.985Z,18.70
2023-02-14T19:21:41.522Z,14.50
2023-02-14T19:24:11.242Z,16.43
2023-02-14T19:26:41.320Z,16.70
2023-02-14T19:29:13.057Z,17.63
2023-02-14T19:31:43.795Z,15.97
2023-02-14T19:34:18.184Z,15.67
2023-02-14T19:36:48.084Z,18.83
2023-02-14T19:39:17.638Z,18.03
2023-02-14T19:41:47.654Z,18.07
2023-02-14T19:44:18.923Z,19.60
2023-02-14T19:46:48.676Z,18.23
2023-02-14T19:49:19.929Z,18.90
2023-02-14T19:51:51.569Z,23.23
2023-02-14T19:54:22.158Z,18.90
2023-02-14T19:56:51.574Z,24.27
2023-02-14T19:59:22.965Z,21.03
2023-02-14T20:01:53.418Z,25.43
2023-02-14T20:04:23.722Z,20.47
2023-02-14T20:06:53.650Z,23.70
2023-02-14T20:09:23.054Z,17.63
2023-02-14T20:11:54.602Z,26.43
2023-02-14T20:14:26.448Z,28.73
2023-02-14T20:16:57.346Z,24.57
2023-02-14T20:19:29.508Z,22.57
2023-02-14T20:21:58.781Z,22.57
2023-02-14T20:24:28.828Z,22.20
2023-02-14T20:26:58.641Z,34.20
2023-02-14T20:29:30.033Z,25.87
2023-02-14T20:32:03.553Z,19.00
2023-02-14T20:34:33.294Z,28.37
2023-02-14T20:37:02.550Z,24.23
2023-02-14T20:39:33.180Z,24.87
2023-02-14T20:42:02.892Z,30.90
2023-02-14T20:44:34.008Z,36.00
2023-02-14T20:47:03.535Z,28.23
2023-02-14T20:49:32.869Z,20.50
2023-02-14T20:52:02.386Z,21.03
2023-02-14T20:54:31.788Z,25.33
2023-02-14T20:57:01.066Z,26.47
2023-02-14T20:59:30.415Z,24.13
2023-02-14T21:02:01.160Z,28.17
2023-02-14T21:04:30.780Z,35.20
2023-02-14T21:07:04.207Z,23.20
2023-02-14T21:09:33.712Z,25.43
2023-02-14T21:12:02.879Z,30.90
2023-02-14T21:14:32.336Z,31.23
2023-02-14T21:17:04.455Z,22.23
2023-02-14T21:19:33.815Z,27.80
2023-02-14T21:22:03.124Z,29.80
2023-02-14T21:24:32.358Z,26.53
2023-02-14T21:27:01.969Z,26.73
2023-02-14T21:29:31.131Z,22.83
2023-02-14T21:32:02.587Z,34.27
2023-02-14T21:34:34.418Z,21.60
2023-02-14T21:37:03.666Z,25.77
2023-02-14T21:39:35.993Z,22.43
2023-02-14T21:42:05.502Z,22.70
2023-02-14T21:44:52.147Z,23.87
2023-02-14T21:47:21.790Z,30.33
2023-02-14T21:50:09.980Z,20.80
2023-02-14T21:52:39.849Z,21.67
2023-02-14T21:55:10.032Z,25.80
2023-02-14T21:57:39.743Z,26.70
2023-02-14T22:00:09.644Z,26.23
2023-02-14T22:02:41.952Z,25.27
2023-02-14T22:05:12.590Z,31.23
2023-02-14T22:07:42.064Z,26.70
2023-02-14T22:10:13.033Z,23.07
2023-02-14T22:12:42.577Z,25.27
2023-02-14T22:15:11.993Z,25.03
2023-02-14T22:17:41.184Z,24.50
2023-02-14T22:20:10.846Z,24.67
2023-02-14T22:22:41.740Z,25.63
2023-02-14T22:25:11.450Z,25.90
2023-02-14T22:27:41.266Z,34.43
2023-02-14T22:30:10.842Z,26.93
2023-02-14T22:32:40.148Z,23.20
2023-02-14T22:35:09.723Z,24.07
2023-02-14T22:37:39.526Z,23.83
2023-02-14T22:40:11.014Z,24.10
2023-02-14T22:42:40.248Z,30.10
2023-02-14T22:45:10.191Z,27.90
2023-02-14T22:47:39.835Z,37.77
2023-02-14T22:50:10.004Z,32.33
2023-02-14T22:52:39.309Z,28.73
2023-02-14T22:55:10.505Z,25.47
2023-02-14T22:57:39.833Z,25.10
2023-02-14T23:00:11.905Z,23.33
2023-02-14T23:02:41.537Z,20.13
2023-02-14T23:05:10.940Z,24.27
2023-02-14T23:07:40.354Z,26.00
2023-02-14T23:10:12.066Z,20.60
2023-02-14T23:12:59.127Z,24.83
2023-02-14T23:15:45.825Z,19.17
2023-02-14T23:18:32.731Z,21.53
2023-02-14T23:21:19.726Z,20.83
2023-02-14T23:23:49.248Z,18.80
2023-02-14T23:26:22.502Z,23.80
2023-02-14T23:28:52.156Z,19.27
2023-02-14T23:31:21.624Z,20.73
2023-02-14T23:33:53.295Z,18.43
2023-02-14T23:36:22.949Z,24.10
2023-02-14T23:38:52.178Z,22.63
2023-02-14T23:41:40.292Z,24.77
2023-02-14T23:44:09.804Z,22.80
2023-02-14T23:46:39.027Z,26.60
2023-02-14T23:49:08.373Z,23.23
2023-02-14T23:51:38.049Z,24.80
2023-02-14T23:54:07.637Z,102.73
2023-02-14T23:56:38.850Z,23.47
2023-02-14T23:59:08.179Z,24.23
